Kaplan, Louisiana
Current Conditions -  °F | °C
As of 8:35 PM on Friday 28 Nov 2014 (Local Time) from KIYA Reporting Station
Clear Clear  
Wind Chill: 53°   Ceiling: Unl
Heat Index: 53°   Visibility: 10mi
Dew Point: 49°   Wind: 8mph
Humidity: 88%   Direction: 130°SE
Pressure: 30.25"   Gusts: NA
Location:  30°N, 92.28°W
Report Text: KIYA 290235Z AUTO 13007KT 10SM CLR 11/10 A3025 RMK AO2 T01140095
Loading
Personal Weather Stations






























Interactive Weather Map New forecast layout! Learn more

10-Day Weather Forecast

Advertisements
Track Severe Weather on mobile